Time;durP1;ratioP1;P1;durP2;ratioP2;P2;SDS_P1;SDS_P2;PMS_P1;PMS_P2;Temp;Humidity;BMP_temperature;BMP_pressure;BME280_temperature;BME280_humidity;BME280_pressure;Samples;Min_cycle;Max_cycle;Signal;HPM_P1;HPM_P2
2022/06/02 00:01:37;;;;;;;23.43;21.33;;;;;;;;;;4979430;28;20229;-74
2022/06/02 00:04:21;;;;;;;22.73;20.73;;;;;;;;;;5021487;28;20251;-75
2022/06/02 00:07:03;;;;;;;22.97;20.97;;;;;;;;;;5001283;28;20259;-74
2022/06/02 00:09:49;;;;;;;22.90;21.00;;;;;;;;;;5008303;28;20281;-74
2022/06/02 00:13:00;;;;;;;22.77;20.87;;;;;;;;;;4988863;28;20228;-74
2022/06/02 00:15:41;;;;;;;22.47;20.57;;;;;;;;;;4946709;28;20796;-74
2022/06/02 00:18:10;;;;;;;23.87;21.87;;;;;;;;;;4967209;28;20224;-75
2022/06/02 00:20:42;;;;;;;24.07;21.87;;;;;;;;;;5017640;28;20244;-75
2022/06/02 00:23:19;;;;;;;24.10;21.90;;;;;;;;;;5027255;28;20249;-76
2022/06/02 00:26:12;;;;;;;23.83;21.83;;;;;;;;;;5021128;28;20255;-73
2022/06/02 00:28:44;;;;;;;23.43;21.23;;;;;;;;;;4999873;28;20233;-74
2022/06/02 00:31:18;;;;;;;23.57;21.47;;;;;;;;;;4977559;28;20225;-74
2022/06/02 00:33:53;;;;;;;24.20;22.03;;;;;;;;;;5002249;28;20286;-75
2022/06/02 00:36:25;;;;;;;23.53;21.53;;;;;;;;;;5034902;28;20231;-74
2022/06/02 00:38:50;;;;;;;24.37;21.90;;;;;;;;;;5011956;28;20220;-74
2022/06/02 00:41:27;;;;;;;23.87;21.67;;;;;;;;;;4996687;28;20527;-74
2022/06/02 00:44:11;;;;;;;23.93;21.67;;;;;;;;;;5014744;28;20720;-75
2022/06/02 00:47:04;;;;;;;24.13;21.83;;;;;;;;;;4987287;28;20238;-73
2022/06/02 00:49:39;;;;;;;23.10;21.20;;;;;;;;;;5008258;28;20225;-74
2022/06/02 00:52:19;;;;;;;22.53;20.63;;;;;;;;;;5013947;28;20680;-75
2022/06/02 00:58:01;;;;;;;23.57;21.37;;;;;;;;;;5004709;28;20224;-75
2022/06/02 01:00:39;;;;;;;23.30;21.27;;;;;;;;;;5019050;28;20225;-75
2022/06/02 01:03:04;;;;;;;23.63;21.57;;;;;;;;;;4978372;28;20224;-74
2022/06/02 01:05:51;;;;;;;22.13;20.27;;;;;;;;;;5020221;28;20250;-74
2022/06/02 01:08:31;;;;;;;22.07;20.07;;;;;;;;;;5020746;28;20221;-74
2022/06/02 01:11:33;;;;;;;20.83;18.93;;;;;;;;;;5018821;28;20308;-74
2022/06/02 01:14:17;;;;;;;19.77;18.07;;;;;;;;;;5025921;28;20274;-74
2022/06/02 01:16:47;;;;;;;19.20;17.53;;;;;;;;;;5009101;28;20247;-74
2022/06/02 01:19:52;;;;;;;18.90;17.20;;;;;;;;;;5014342;28;20709;-74
2022/06/02 01:22:25;;;;;;;18.43;16.83;;;;;;;;;;5009250;28;20323;-74
2022/06/02 01:25:10;;;;;;;19.73;17.97;;;;;;;;;;5014570;28;20319;-75
2022/06/02 01:28:11;;;;;;;18.00;16.33;;;;;;;;;;5029656;28;20244;-74
2022/06/02 01:30:48;;;;;;;18.30;16.60;;;;;;;;;;5013477;28;20231;-74
2022/06/02 01:33:41;;;;;;;17.10;15.70;;;;;;;;;;4977206;28;20227;-74
2022/06/02 01:36:41;;;;;;;17.47;15.97;;;;;;;;;;5018012;28;20231;-73
2022/06/02 01:39:29;;;;;;;17.23;15.77;;;;;;;;;;4959302;28;20229;-74
2022/06/02 01:42:01;;;;;;;17.57;15.97;;;;;;;;;;5000996;28;20235;-75
2022/06/02 01:44:52;;;;;;;16.87;15.47;;;;;;;;;;5015754;28;20613;-73
2022/06/02 01:47:26;;;;;;;17.40;15.97;;;;;;;;;;5012359;28;20285;-74
2022/06/02 01:50:02;;;;;;;17.67;16.03;;;;;;;;;;4997910;28;20272;-74
2022/06/02 01:52:44;;;;;;;17.10;15.53;;;;;;;;;;4995086;28;20232;-75
2022/06/02 01:55:34;;;;;;;16.83;15.33;;;;;;;;;;4997502;28;20339;-74
2022/06/02 01:58:44;;;;;;;17.17;15.80;;;;;;;;;;4968324;28;20221;-75
2022/06/02 02:01:16;;;;;;;17.30;15.87;;;;;;;;;;5009728;28;20255;-74
2022/06/02 02:04:30;;;;;;;17.30;15.90;;;;;;;;;;5006829;28;20231;-74
2022/06/02 02:06:56;;;;;;;17.40;15.80;;;;;;;;;;4943999;28;20234;-74
2022/06/02 02:09:35;;;;;;;17.67;16.13;;;;;;;;;;5017668;28;20227;-74
2022/06/02 02:12:06;;;;;;;16.97;15.47;;;;;;;;;;4962118;28;20222;-75
2022/06/02 02:14:38;;;;;;;17.73;16.20;;;;;;;;;;5001807;28;20228;-75
2022/06/02 02:17:26;;;;;;;16.87;15.37;;;;;;;;;;4996411;28;20225;-75
2022/06/02 02:20:25;;;;;;;15.97;14.77;;;;;;;;;;5017713;28;20326;-74
2022/06/02 02:23:18;;;;;;;16.53;15.03;;;;;;;;;;4995903;28;20258;-75
2022/06/02 02:25:46;;;;;;;15.77;14.37;;;;;;;;;;5009613;28;20726;-74
2022/06/02 02:28:13;;;;;;;16.50;15.17;;;;;;;;;;5011832;28;20229;-74
2022/06/02 02:30:45;;;;;;;16.30;14.93;;;;;;;;;;5020175;28;20300;-74
2022/06/02 02:33:42;;;;;;;16.53;15.13;;;;;;;;;;5011463;28;20234;-74
2022/06/02 02:36:22;;;;;;;16.40;15.00;;;;;;;;;;5004256;28;20228;-73
2022/06/02 02:39:11;;;;;;;16.00;14.60;;;;;;;;;;4996454;28;20217;-76
2022/06/02 02:42:05;;;;;;;15.30;13.97;;;;;;;;;;4996568;28;20260;-74
2022/06/02 02:45:08;;;;;;;17.17;15.60;;;;;;;;;;5012799;28;20362;-74
2022/06/02 02:47:42;;;;;;;16.23;14.63;;;;;;;;;;5017580;28;20227;-75
2022/06/02 02:50:25;;;;;;;17.33;15.73;;;;;;;;;;5021577;28;20224;-74
2022/06/02 02:53:11;;;;;;;16.83;15.43;;;;;;;;;;5017327;28;20228;-74
2022/06/02 02:56:01;;;;;;;16.20;14.80;;;;;;;;;;5014205;28;20235;-74
2022/06/02 02:58:34;;;;;;;16.63;15.17;;;;;;;;;;5010307;28;20300;-74
2022/06/02 03:01:10;;;;;;;17.00;15.60;;;;;;;;;;5016798;28;20317;-74
2022/06/02 03:03:45;;;;;;;17.17;15.70;;;;;;;;;;5012831;28;20228;-74
2022/06/02 03:06:23;;;;;;;16.97;15.47;;;;;;;;;;4978092;28;20302;-74
2022/06/02 03:09:08;;;;;;;17.83;16.23;;;;;;;;;;5010163;28;20653;-73
2022/06/02 03:11:52;;;;;;;17.27;15.67;;;;;;;;;;5010447;28;20223;-74
2022/06/02 03:14:39;;;;;;;18.33;16.53;;;;;;;;;;5011320;28;20303;-73
2022/06/02 03:17:42;;;;;;;17.53;15.93;;;;;;;;;;5012630;28;20256;-74
2022/06/02 03:20:45;;;;;;;17.37;15.87;;;;;;;;;;5022429;28;20216;-75
2022/06/02 03:23:40;;;;;;;16.80;15.40;;;;;;;;;;5021826;28;20622;-75
2022/06/02 03:26:35;;;;;;;17.20;15.60;;;;;;;;;;5021306;28;20231;-74
2022/06/02 03:29:05;;;;;;;17.27;15.70;;;;;;;;;;4992677;28;20318;-74
2022/06/02 03:31:39;;;;;;;18.50;16.10;;;;;;;;;;4997222;28;20216;-74
2022/06/02 03:34:42;;;;;;;18.30;16.67;;;;;;;;;;5002361;28;20229;-75
2022/06/02 03:37:37;;;;;;;18.13;16.33;;;;;;;;;;4955322;28;20233;-74
2022/06/02 03:40:33;;;;;;;29.57;18.80;;;;;;;;;;5009285;28;20231;-76
2022/06/02 03:43:16;;;;;;;45.83;23.93;;;;;;;;;;5013126;28;20224;-74
2022/06/02 03:46:11;;;;;;;50.93;28.50;;;;;;;;;;4995863;28;20685;-75
2022/06/02 03:49:01;;;;;;;35.70;27.47;;;;;;;;;;5018854;28;20224;-76
2022/06/02 03:51:41;;;;;;;31.67;25.53;;;;;;;;;;5028587;28;20232;-74
2022/06/02 03:54:44;;;;;;;21.17;19.10;;;;;;;;;;5018820;28;20225;-74
2022/06/02 03:57:40;;;;;;;19.03;17.23;;;;;;;;;;5021898;28;20307;-74
2022/06/02 04:00:14;;;;;;;18.10;16.23;;;;;;;;;;5024796;28;20775;-74
2022/06/02 04:02:47;;;;;;;16.80;15.30;;;;;;;;;;4996386;28;20256;-74
2022/06/02 04:05:34;;;;;;;23.83;16.90;;;;;;;;;;4974386;28;20229;-75
2022/06/02 04:08:14;;;;;;;20.03;17.40;;;;;;;;;;5026891;28;20229;-74
2022/06/02 04:10:52;;;;;;;19.50;17.57;;;;;;;;;;4996765;28;20235;-75
2022/06/02 04:16:29;;;;;;;24.00;16.93;;;;;;;;;;5011964;28;20228;-74
2022/06/02 04:22:15;;;;;;;18.33;16.70;;;;;;;;;;5013298;28;20766;-73
2022/06/02 04:25:09;;;;;;;25.50;16.83;;;;;;;;;;4989265;28;20248;-74
2022/06/02 04:28:12;;;;;;;27.57;17.13;;;;;;;;;;4999956;28;20244;-74
2022/06/02 04:31:07;;;;;;;18.17;16.33;;;;;;;;;;4998226;28;20224;-74
2022/06/02 04:33:50;;;;;;;21.97;16.97;;;;;;;;;;5003836;28;20780;-74
2022/06/02 04:36:35;;;;;;;19.30;17.50;;;;;;;;;;4985879;28;20212;-75
2022/06/02 04:39:07;;;;;;;20.93;18.13;;;;;;;;;;5009291;28;20287;-74
2022/06/02 04:41:53;;;;;;;28.83;18.07;;;;;;;;;;5001880;28;20224;-74
2022/06/02 04:44:34;;;;;;;18.87;17.27;;;;;;;;;;4966073;28;20216;-74
2022/06/02 04:47:29;;;;;;;20.30;18.23;;;;;;;;;;4999811;28;20240;-76
2022/06/02 04:50:17;;;;;;;20.23;18.23;;;;;;;;;;4983400;28;20672;-74
2022/06/02 04:52:47;;;;;;;19.33;17.43;;;;;;;;;;4996455;28;20232;-74
2022/06/02 04:55:31;;;;;;;19.47;17.77;;;;;;;;;;5026628;28;20224;-74
2022/06/02 04:58:36;;;;;;;19.00;17.40;;;;;;;;;;4990354;28;20246;-75
2022/06/02 05:01:06;;;;;;;18.20;16.60;;;;;;;;;;4992667;28;20951;-74
2022/06/02 05:03:54;;;;;;;18.87;17.17;;;;;;;;;;5001246;28;20228;-74
2022/06/02 05:06:38;;;;;;;19.47;17.67;;;;;;;;;;4982247;28;20224;-74
2022/06/02 05:09:17;;;;;;;19.93;18.13;;;;;;;;;;5019784;28;20231;-74
2022/06/02 05:11:50;;;;;;;20.23;18.53;;;;;;;;;;4973450;28;20228;-75
2022/06/02 05:14:34;;;;;;;20.77;18.77;;;;;;;;;;4993308;28;20281;-74
2022/06/02 05:17:21;;;;;;;20.63;18.77;;;;;;;;;;4963820;28;20224;-75
2022/06/02 05:19:57;;;;;;;21.20;19.40;;;;;;;;;;5015692;28;20232;-74
2022/06/02 05:22:29;;;;;;;20.53;18.60;;;;;;;;;;4959832;28;20627;-75
2022/06/02 05:25:06;;;;;;;20.77;18.70;;;;;;;;;;5013613;28;20764;-75
2022/06/02 05:27:37;;;;;;;21.30;19.20;;;;;;;;;;5008761;28;20699;-74
2022/06/02 05:30:09;;;;;;;20.50;18.37;;;;;;;;;;4988816;28;20228;-71
2022/06/02 05:32:43;;;;;;;19.93;18.03;;;;;;;;;;5002560;28;20753;-73
2022/06/02 05:35:46;;;;;;;19.60;17.70;;;;;;;;;;4985824;28;20290;-75
2022/06/02 05:38:36;;;;;;;18.60;16.73;;;;;;;;;;5017385;28;20224;-78
2022/06/02 05:41:20;;;;;;;17.07;15.47;;;;;;;;;;5018894;28;20229;-74
2022/06/02 05:43:52;;;;;;;16.53;14.93;;;;;;;;;;5006680;28;20307;-75
2022/06/02 05:47:00;;;;;;;14.90;13.50;;;;;;;;;;5027608;28;20220;-77
2022/06/02 05:49:31;;;;;;;13.33;12.03;;;;;;;;;;4970607;28;20251;-75
2022/06/02 05:52:25;;;;;;;12.30;11.10;;;;;;;;;;4990405;28;20237;-74
2022/06/02 05:55:05;;;;;;;11.33;10.23;;;;;;;;;;4998148;28;20221;-75
2022/06/02 05:57:41;;;;;;;10.67;9.67;;;;;;;;;;5014121;28;20709;-74
2022/06/02 06:00:29;;;;;;;9.50;8.63;;;;;;;;;;4978003;28;20224;-74
2022/06/02 06:03:10;;;;;;;10.23;8.70;;;;;;;;;;4989244;28;20263;-74
2022/06/02 06:05:42;;;;;;;9.67;8.67;;;;;;;;;;4998498;28;20417;-75
2022/06/02 06:08:33;;;;;;;9.90;8.30;;;;;;;;;;5024784;28;20256;-74
2022/06/02 06:11:35;;;;;;;8.53;7.73;;;;;;;;;;4993822;28;20271;-74
2022/06/02 06:14:27;;;;;;;8.40;7.70;;;;;;;;;;4997521;28;20269;-74
2022/06/02 06:17:02;;;;;;;7.80;7.20;;;;;;;;;;5016159;28;20225;-74
2022/06/02 06:19:45;;;;;;;8.13;7.33;;;;;;;;;;4999942;28;20264;-76
2022/06/02 06:22:22;;;;;;;6.77;6.17;;;;;;;;;;5006588;28;20228;-74
2022/06/02 06:25:27;;;;;;;5.97;5.40;;;;;;;;;;5001271;28;20220;-75
2022/06/02 06:28:10;;;;;;;6.53;5.40;;;;;;;;;;5022958;28;20243;-76
2022/06/02 06:30:47;;;;;;;5.53;5.03;;;;;;;;;;4976104;28;20222;-75
2022/06/02 06:33:20;;;;;;;6.00;4.67;;;;;;;;;;5025071;28;20220;-75
2022/06/02 06:35:53;;;;;;;5.47;4.50;;;;;;;;;;5004156;28;20224;-75
2022/06/02 06:38:45;;;;;;;5.03;4.57;;;;;;;;;;5017453;28;20239;-75
2022/06/02 06:42:03;;;;;;;4.70;4.30;;;;;;;;;;4991789;28;20792;-74
2022/06/02 06:44:55;;;;;;;4.97;4.47;;;;;;;;;;5004262;28;20220;-75
2022/06/02 06:47:34;;;;;;;5.57;3.93;;;;;;;;;;4999879;28;20235;-76
2022/06/02 06:50:17;;;;;;;4.63;4.10;;;;;;;;;;5003250;28;20625;-76
2022/06/02 06:52:59;;;;;;;4.43;4.03;;;;;;;;;;5003752;28;20254;-75
2022/06/02 06:55:46;;;;;;;3.93;3.57;;;;;;;;;;4990899;28;20654;-75
2022/06/02 06:58:43;;;;;;;3.97;3.53;;;;;;;;;;5007053;28;20220;-76
2022/06/02 07:01:20;;;;;;;4.07;3.77;;;;;;;;;;5018359;28;20224;-76
2022/06/02 07:04:06;;;;;;;3.50;3.20;;;;;;;;;;5018690;28;20216;-76
2022/06/02 07:06:41;;;;;;;3.57;3.27;;;;;;;;;;4969853;28;20224;-74
2022/06/02 07:09:22;;;;;;;4.20;3.90;;;;;;;;;;4959091;28;20220;-76
2022/06/02 07:14:47;;;;;;;4.43;3.97;;;;;;;;;;5017173;28;20247;-77
2022/06/02 07:17:41;;;;;;;3.50;3.20;;;;;;;;;;5028168;28;20224;-76
2022/06/02 07:20:20;;;;;;;3.73;3.43;;;;;;;;;;4976035;28;20235;-74
2022/06/02 07:23:09;;;;;;;7.53;3.33;;;;;;;;;;5009008;28;20235;-77
2022/06/02 07:25:51;;;;;;;3.73;3.40;;;;;;;;;;5018283;28;20225;-75
2022/06/02 07:28:22;;;;;;;4.57;3.00;;;;;;;;;;4999821;28;20213;-75
2022/06/02 07:31:20;;;;;;;5.03;3.00;;;;;;;;;;5020366;28;20312;-76
2022/06/02 07:33:53;;;;;;;3.58;3.10;;;;;;;;;;5039937;28;20295;-76
2022/06/02 07:36:53;;;;;;;4.47;3.20;;;;;;;;;;4974303;28;20240;-76
2022/06/02 07:39:42;;;;;;;3.33;2.70;;;;;;;;;;4984914;28;20221;-75
2022/06/02 07:42:50;;;;;;;3.08;2.58;;;;;;;;;;5000615;28;20324;-76
2022/06/02 07:45:35;;;;;;;3.97;2.20;;;;;;;;;;5030794;28;20271;-76
2022/06/02 07:48:32;;;;;;;4.10;2.75;;;;;;;;;;5017802;28;20228;-76
2022/06/02 07:51:09;;;;;;;3.08;2.78;;;;;;;;;;4982393;28;20248;-76
2022/06/02 07:53:52;;;;;;;4.18;2.55;;;;;;;;;;5022198;28;20220;-77
2022/06/02 07:56:23;;;;;;;2.70;2.50;;;;;;;;;;5007338;28;20258;-75
2022/06/02 07:59:05;;;;;;;2.67;2.28;;;;;;;;;;5010853;28;20244;-75
2022/06/02 08:02:08;;;;;;;3.10;2.80;;;;;;;;;;5010624;28;20224;-77
2022/06/02 08:04:54;;;;;;;2.45;2.15;;;;;;;;;;5020600;28;20223;-76
2022/06/02 08:07:35;;;;;;;3.72;2.00;;;;;;;;;;5019336;28;20306;-75
2022/06/02 08:10:03;;;;;;;2.50;2.30;;;;;;;;;;5018300;28;20718;-76
2022/06/02 08:12:49;;;;;;;2.60;2.40;;;;;;;;;;5017555;28;20231;-76
2022/06/02 08:15:37;;;;;;;4.03;2.10;;;;;;;;;;5013772;28;20934;-75
2022/06/02 08:18:24;;;;;;;2.78;2.10;;;;;;;;;;5012866;28;20233;-76
2022/06/02 08:21:15;;;;;;;3.42;1.85;;;;;;;;;;4980940;28;20228;-75
2022/06/02 08:24:19;;;;;;;3.33;2.25;;;;;;;;;;4985707;28;20225;-76
2022/06/02 08:26:57;;;;;;;2.35;2.15;;;;;;;;;;4994843;28;20231;-76
2022/06/02 08:29:23;;;;;;;2.47;2.28;;;;;;;;;;5021618;28;20224;-76
2022/06/02 08:32:25;;;;;;;4.50;2.03;;;;;;;;;;5023532;28;20229;-76
2022/06/02 08:35:26;;;;;;;1.63;1.52;;;;;;;;;;5008636;28;20262;-77
2022/06/02 08:38:15;;;;;;;3.50;2.03;;;;;;;;;;4946350;28;20226;-76
2022/06/02 08:41:28;;;;;;;3.78;2.08;;;;;;;;;;5019441;28;20355;-77
2022/06/02 08:44:18;;;;;;;2.13;1.80;;;;;;;;;;5000615;28;20450;-77
2022/06/02 08:47:21;;;;;;;1.65;1.55;;;;;;;;;;5013389;28;20248;-77
2022/06/02 08:50:22;;;;;;;2.53;1.48;;;;;;;;;;4993451;28;20279;-76
2022/06/02 08:53:25;;;;;;;2.60;2.05;;;;;;;;;;4999456;28;20249;-76
2022/06/02 08:55:59;;;;;;;2.05;1.75;;;;;;;;;;5030457;28;20224;-76
2022/06/02 08:58:43;;;;;;;2.05;1.60;;;;;;;;;;5012297;28;20505;-76
2022/06/02 09:01:11;;;;;;;2.83;1.60;;;;;;;;;;5032843;28;20347;-75
2022/06/02 09:04:14;;;;;;;2.50;1.70;;;;;;;;;;5033956;28;20231;-78
2022/06/02 09:06:40;;;;;;;1.58;1.38;;;;;;;;;;5023088;28;20664;-77
2022/06/02 09:09:45;;;;;;;1.90;1.80;;;;;;;;;;5010930;28;20233;-79
2022/06/02 09:12:21;;;;;;;2.75;1.88;;;;;;;;;;5002475;28;20216;-78
2022/06/02 09:15:18;;;;;;;1.85;1.60;;;;;;;;;;5008670;28;20669;-78
2022/06/02 09:17:46;;;;;;;3.83;1.77;;;;;;;;;;5020361;28;20224;-78
2022/06/02 09:20:30;;;;;;;1.98;1.65;;;;;;;;;;5004580;28;20226;-78
2022/06/02 09:23:18;;;;;;;1.63;1.52;;;;;;;;;;5009162;28;20250;-78
2022/06/02 09:25:57;;;;;;;1.70;1.60;;;;;;;;;;5000807;28;20231;-79
2022/06/02 09:28:35;;;;;;;2.17;1.30;;;;;;;;;;5014151;28;20601;-78
2022/06/02 09:31:11;;;;;;;2.10;1.65;;;;;;;;;;4999441;28;20220;-80
2022/06/02 09:33:49;;;;;;;1.08;0.98;;;;;;;;;;4999906;28;20236;-77
2022/06/02 09:36:51;;;;;;;1.42;1.23;;;;;;;;;;4994339;28;20270;-78
2022/06/02 09:39:48;;;;;;;1.48;1.20;;;;;;;;;;5005338;28;20215;-76
2022/06/02 09:42:39;;;;;;;4.00;1.40;;;;;;;;;;4964685;28;20235;-77
2022/06/02 09:45:27;;;;;;;1.35;1.25;;;;;;;;;;4995803;28;20718;-77
2022/06/02 09:48:15;;;;;;;3.17;1.30;;;;;;;;;;4991753;28;20229;-75
2022/06/02 09:50:56;;;;;;;1.33;1.23;;;;;;;;;;5004571;28;20228;-76
2022/06/02 09:53:30;;;;;;;2.17;1.30;;;;;;;;;;4993385;28;20252;-76
2022/06/02 09:56:17;;;;;;;1.65;1.30;;;;;;;;;;4984411;28;20223;-77
2022/06/02 09:58:49;;;;;;;1.58;1.45;;;;;;;;;;4992254;28;20220;-77
2022/06/02 10:01:20;;;;;;;3.17;1.40;;;;;;;;;;4995754;28;20241;-77
2022/06/02 10:03:54;;;;;;;3.20;1.08;;;;;;;;;;4996240;28;20224;-77
2022/06/02 10:06:30;;;;;;;1.30;1.02;;;;;;;;;;4995577;28;20235;-75
2022/06/02 10:09:16;;;;;;;1.45;0.98;;;;;;;;;;5008051;28;20686;-76
2022/06/02 10:14:59;;;;;;;2.00;1.20;;;;;;;;;;5015661;28;20228;-77
2022/06/02 10:17:32;;;;;;;2.75;1.45;;;;;;;;;;5019446;28;20763;-75
2022/06/02 10:20:16;;;;;;;2.45;1.33;;;;;;;;;;5016652;28;20303;-76
2022/06/02 10:23:16;;;;;;;1.73;1.10;;;;;;;;;;4996136;28;20616;-76
2022/06/02 10:26:15;;;;;;;1.25;1.10;;;;;;;;;;5015004;28;20213;-75
2022/06/02 10:28:59;;;;;;;1.10;0.95;;;;;;;;;;5020577;28;20236;-76
2022/06/02 10:31:34;;;;;;;3.08;1.27;;;;;;;;;;5009488;28;20220;-76
2022/06/02 10:34:25;;;;;;;2.13;1.20;;;;;;;;;;4989191;28;20212;-76
2022/06/02 10:37:33;;;;;;;1.83;1.25;;;;;;;;;;5010202;28;20228;-75
2022/06/02 10:40:13;;;;;;;2.67;1.30;;;;;;;;;;5011944;28;20232;-77
2022/06/02 10:42:49;;;;;;;3.72;1.25;;;;;;;;;;5010546;28;20249;-77
2022/06/02 10:45:20;;;;;;;1.80;1.30;;;;;;;;;;5007721;28;20780;-76
2022/06/02 10:48:05;;;;;;;2.20;1.15;;;;;;;;;;5014086;28;20236;-76
2022/06/02 10:50:38;;;;;;;2.28;1.20;;;;;;;;;;5014506;28;20711;-75
2022/06/02 10:53:29;;;;;;;1.40;0.90;;;;;;;;;;5023587;28;20254;-76
2022/06/02 10:56:22;;;;;;;6.15;1.30;;;;;;;;;;5025880;28;20290;-78
2022/06/02 10:58:54;;;;;;;2.53;1.05;;;;;;;;;;5029579;28;20252;-76
2022/06/02 11:01:50;;;;;;;1.45;1.13;;;;;;;;;;5005610;28;20244;-76
2022/06/02 11:04:29;;;;;;;1.50;1.40;;;;;;;;;;5013115;28;20215;-76
2022/06/02 11:07:31;;;;;;;1.60;1.13;;;;;;;;;;5009240;28;20241;-77
2022/06/02 11:10:15;;;;;;;1.55;1.20;;;;;;;;;;5012389;28;20235;-77
2022/06/02 11:13:18;;;;;;;2.10;1.15;;;;;;;;;;5004812;28;20244;-76
2022/06/02 11:16:01;;;;;;;3.58;1.55;;;;;;;;;;5028278;28;21124;-76
2022/06/02 11:18:38;;;;;;;1.58;1.00;;;;;;;;;;4994195;28;20224;-77
2022/06/02 11:21:25;;;;;;;1.30;1.20;;;;;;;;;;5009276;28;20231;-76
2022/06/02 11:24:04;;;;;;;1.25;1.08;;;;;;;;;;5035512;28;20228;-76
2022/06/02 11:26:54;;;;;;;1.90;1.35;;;;;;;;;;5019776;28;20232;-77
2022/06/02 11:29:51;;;;;;;1.40;1.27;;;;;;;;;;5020740;28;20220;-77
2022/06/02 11:32:38;;;;;;;1.70;1.40;;;;;;;;;;4992869;28;20228;-77
2022/06/02 11:35:23;;;;;;;1.90;1.40;;;;;;;;;;4995204;28;20225;-77
2022/06/02 11:37:57;;;;;;;2.45;1.40;;;;;;;;;;4999194;28;20220;-77
2022/06/02 11:41:01;;;;;;;2.42;1.65;;;;;;;;;;5018394;28;20232;-76
2022/06/02 11:43:45;;;;;;;1.77;1.27;;;;;;;;;;5021923;28;20284;-75
2022/06/02 11:46:19;;;;;;;1.52;1.30;;;;;;;;;;5021429;28;20212;-77
2022/06/02 11:48:48;;;;;;;3.00;1.08;;;;;;;;;;5018865;28;20228;-76
2022/06/02 11:51:25;;;;;;;2.25;1.25;;;;;;;;;;5009053;28;20255;-76
2022/06/02 11:54:13;;;;;;;1.95;1.15;;;;;;;;;;4996561;28;20274;-78
2022/06/02 11:57:10;;;;;;;1.58;1.20;;;;;;;;;;5014526;28;20230;-77
2022/06/02 12:00:13;;;;;;;3.22;1.38;;;;;;;;;;5009999;28;20221;-76
2022/06/02 12:02:56;;;;;;;2.13;1.27;;;;;;;;;;5016049;28;20283;-76
2022/06/02 12:05:47;;;;;;;2.38;1.23;;;;;;;;;;5025417;28;21360;-76
2022/06/02 12:08:30;;;;;;;1.70;1.10;;;;;;;;;;4998664;28;20228;-76
2022/06/02 12:11:08;;;;;;;2.30;1.40;;;;;;;;;;5011296;28;20343;-75
2022/06/02 12:13:55;;;;;;;1.40;1.30;;;;;;;;;;5018204;28;20224;-76
2022/06/02 12:17:06;;;;;;;1.63;1.10;;;;;;;;;;5015291;28;20598;-76
2022/06/02 12:19:34;;;;;;;1.27;1.17;;;;;;;;;;5001164;28;20274;-76
2022/06/02 12:22:18;;;;;;;2.08;1.27;;;;;;;;;;5015388;28;20232;-77
2022/06/02 12:25:05;;;;;;;3.05;1.45;;;;;;;;;;4997670;28;20224;-75
2022/06/02 12:27:52;;;;;;;1.58;1.48;;;;;;;;;;4992405;28;20243;-76
2022/06/02 12:30:32;;;;;;;2.45;1.50;;;;;;;;;;5015298;28;20217;-76
2022/06/02 12:33:24;;;;;;;1.85;1.20;;;;;;;;;;5027132;28;20233;-77
2022/06/02 12:36:26;;;;;;;1.52;1.33;;;;;;;;;;5014197;28;20220;-76
2022/06/02 12:39:31;;;;;;;2.97;1.50;;;;;;;;;;5013446;28;20232;-76
2022/06/02 12:42:15;;;;;;;1.30;1.20;;;;;;;;;;5007926;28;20614;-76
2022/06/02 12:45:09;;;;;;;2.50;1.30;;;;;;;;;;5009581;28;20771;-75
2022/06/02 12:48:13;;;;;;;2.35;1.25;;;;;;;;;;5016668;28;20232;-75
2022/06/02 12:50:51;;;;;;;1.40;1.30;;;;;;;;;;4997127;28;20258;-76
2022/06/02 12:53:52;;;;;;;1.50;1.40;;;;;;;;;;5034878;28;20228;-76
2022/06/02 12:56:34;;;;;;;1.80;1.30;;;;;;;;;;5011332;28;20363;-76
2022/06/02 12:59:34;;;;;;;1.10;1.00;;;;;;;;;;4992956;28;20220;-76
2022/06/02 13:02:08;;;;;;;3.38;1.27;;;;;;;;;;5011548;28;20229;-77
2022/06/02 13:05:01;;;;;;;2.88;1.20;;;;;;;;;;4993845;28;20232;-74
2022/06/02 13:07:45;;;;;;;1.80;1.58;;;;;;;;;;4994822;28;20228;-76
2022/06/02 13:10:48;;;;;;;1.60;1.42;;;;;;;;;;5011998;28;20368;-77
2022/06/02 13:13:50;;;;;;;1.20;1.10;;;;;;;;;;5018535;28;20224;-76
2022/06/02 13:16:48;;;;;;;2.20;1.25;;;;;;;;;;4995160;28;20234;-76
2022/06/02 13:19:31;;;;;;;1.50;1.40;;;;;;;;;;5024499;28;20220;-76
2022/06/02 13:22:30;;;;;;;1.75;1.38;;;;;;;;;;5019807;28;20318;-75
2022/06/02 13:25:23;;;;;;;2.35;1.50;;;;;;;;;;5020359;28;20235;-74
2022/06/02 13:28:05;;;;;;;1.30;1.20;;;;;;;;;;5025912;28;20679;-74
2022/06/02 13:30:36;;;;;;;2.25;1.30;;;;;;;;;;5022258;28;20303;-74
2022/06/02 13:33:29;;;;;;;1.88;1.45;;;;;;;;;;5014486;28;20237;-74
2022/06/02 13:36:18;;;;;;;1.40;1.27;;;;;;;;;;5021365;28;20248;-75
2022/06/02 13:38:57;;;;;;;1.88;1.25;;;;;;;;;;5003100;28;20240;-73
2022/06/02 13:41:50;;;;;;;1.83;1.23;;;;;;;;;;5019294;28;20223;-75
2022/06/02 13:44:24;;;;;;;1.80;1.27;;;;;;;;;;5007203;28;20221;-73
2022/06/02 13:47:08;;;;;;;2.20;1.30;;;;;;;;;;5016951;28;20251;-74
2022/06/02 13:49:55;;;;;;;1.40;1.30;;;;;;;;;;5020782;28;20645;-74
2022/06/02 13:52:41;;;;;;;1.38;1.20;;;;;;;;;;5012435;28;20314;-74
2022/06/02 13:58:21;;;;;;;2.88;1.70;;;;;;;;;;5023155;28;20225;-73
2022/06/02 14:01:04;;;;;;;2.60;1.30;;;;;;;;;;5021008;28;20247;-73
2022/06/02 14:03:39;;;;;;;2.70;1.25;;;;;;;;;;5015043;28;20242;-73
2022/06/02 14:06:07;;;;;;;2.28;1.30;;;;;;;;;;5024213;28;20227;-74
2022/06/02 14:08:39;;;;;;;1.10;1.08;;;;;;;;;;5012927;28;20221;-74
2022/06/02 14:11:13;;;;;;;1.73;1.38;;;;;;;;;;5007680;28;20626;-74
2022/06/02 14:14:00;;;;;;;3.15;1.60;;;;;;;;;;5013546;28;20220;-75
2022/06/02 14:16:35;;;;;;;2.08;1.60;;;;;;;;;;5009774;28;20224;-73
2022/06/02 14:19:18;;;;;;;1.55;1.38;;;;;;;;;;4979524;28;20267;-73
2022/06/02 14:22:38;;;;;;;1.45;1.25;;;;;;;;;;5012428;28;20694;-73
2022/06/02 14:25:18;;;;;;;1.35;1.10;;;;;;;;;;4968202;28;20217;-73
2022/06/02 14:28:01;;;;;;;1.52;1.15;;;;;;;;;;5022823;28;20658;-74
2022/06/02 14:30:39;;;;;;;2.08;1.10;;;;;;;;;;5008223;28;20241;-75
2022/06/02 14:33:25;;;;;;;1.98;1.45;;;;;;;;;;4987918;28;20300;-73
2022/06/02 14:36:18;;;;;;;3.63;1.20;;;;;;;;;;4985494;28;20351;-71
2022/06/02 14:38:55;;;;;;;2.30;1.35;;;;;;;;;;5018274;28;20228;-74
2022/06/02 14:41:32;;;;;;;3.38;1.35;;;;;;;;;;5002422;28;20286;-74
2022/06/02 14:44:16;;;;;;;2.28;1.30;;;;;;;;;;4993699;28;20235;-74
2022/06/02 14:46:55;;;;;;;3.28;1.23;;;;;;;;;;5013851;28;20237;-73
2022/06/02 14:49:26;;;;;;;1.92;1.10;;;;;;;;;;4996237;28;20740;-73
2022/06/02 14:52:02;;;;;;;1.98;1.00;;;;;;;;;;5011056;28;20587;-75
2022/06/02 14:54:43;;;;;;;1.60;1.10;;;;;;;;;;4993649;28;20221;-74
2022/06/02 14:57:29;;;;;;;1.92;1.35;;;;;;;;;;4980307;28;20290;-74
2022/06/02 15:00:06;;;;;;;1.80;1.23;;;;;;;;;;4991585;28;20237;-74
2022/06/02 15:02:53;;;;;;;1.15;1.10;;;;;;;;;;5002310;28;20228;-73
2022/06/02 15:05:47;;;;;;;1.80;1.17;;;;;;;;;;4994714;28;20271;-73
2022/06/02 15:08:45;;;;;;;1.80;1.30;;;;;;;;;;5022226;28;20224;-73
2022/06/02 15:11:13;;;;;;;1.80;1.00;;;;;;;;;;5004738;28;20236;-75
2022/06/02 15:13:55;;;;;;;2.15;0.93;;;;;;;;;;5025778;28;20229;-75
2022/06/02 15:16:20;;;;;;;1.95;1.10;;;;;;;;;;4993434;28;20242;-74
2022/06/02 15:19:13;;;;;;;2.38;1.10;;;;;;;;;;5020252;28;20231;-75
2022/06/02 15:22:00;;;;;;;1.63;0.88;;;;;;;;;;5012958;28;20255;-75
2022/06/02 15:24:42;;;;;;;1.30;0.95;;;;;;;;;;5014235;28;20291;-76
2022/06/02 15:27:24;;;;;;;1.15;1.00;;;;;;;;;;5016072;28;20463;-75
2022/06/02 15:29:58;;;;;;;1.58;1.30;;;;;;;;;;5011873;28;20220;-75
2022/06/02 15:32:38;;;;;;;2.33;1.30;;;;;;;;;;5002024;28;20283;-74
2022/06/02 15:35:16;;;;;;;3.17;1.35;;;;;;;;;;5015878;28;20402;-75
2022/06/02 15:37:59;;;;;;;3.78;1.20;;;;;;;;;;5026481;28;20641;-74
2022/06/02 15:40:52;;;;;;;65.32;10.55;;;;;;;;;;5023873;28;20600;-76
2022/06/02 15:43:51;;;;;;;1.75;1.20;;;;;;;;;;5020338;28;20224;-75
2022/06/02 15:46:40;;;;;;;2.80;1.25;;;;;;;;;;5018173;28;20228;-76
2022/06/02 15:49:36;;;;;;;1.80;1.17;;;;;;;;;;5000393;28;20264;-75
2022/06/02 15:52:38;;;;;;;18.23;2.92;;;;;;;;;;5016731;28;20233;-76
2022/06/02 15:55:39;;;;;;;241.15;27.40;;;;;;;;;;5018431;28;20221;-75
2022/06/02 15:58:11;;;;;;;1.90;1.30;;;;;;;;;;5014881;28;20578;-76
2022/06/02 16:01:14;;;;;;;1.33;1.10;;;;;;;;;;5014453;28;20224;-74
2022/06/02 16:03:57;;;;;;;2.33;1.20;;;;;;;;;;5014622;28;20267;-75
2022/06/02 16:06:51;;;;;;;4.22;1.10;;;;;;;;;;5007509;28;20223;-75
2022/06/02 16:12:57;;;;;;;1.35;0.90;;;;;;;;;;5014131;28;20243;-76
2022/06/02 16:15:43;;;;;;;1.67;0.90;;;;;;;;;;5023616;28;20228;-75
2022/06/02 16:18:35;;;;;;;3.17;1.20;;;;;;;;;;5024230;28;20248;-75
2022/06/02 16:21:25;;;;;;;2.05;0.90;;;;;;;;;;4997792;28;20306;-76
2022/06/02 16:24:17;;;;;;;1.40;1.00;;;;;;;;;;4999308;28;20240;-77
2022/06/02 16:27:01;;;;;;;1.73;0.90;;;;;;;;;;5000912;28;20228;-77
2022/06/02 16:29:55;;;;;;;3.40;1.10;;;;;;;;;;5020824;28;20719;-77
2022/06/02 16:32:21;;;;;;;1.65;1.00;;;;;;;;;;4997382;28;20239;-77
2022/06/02 16:35:12;;;;;;;2.00;0.90;;;;;;;;;;5012952;28;20707;-78
2022/06/02 16:37:51;;;;;;;0.90;0.70;;;;;;;;;;5013112;28;20736;-78
2022/06/02 16:40:22;;;;;;;0.98;0.90;;;;;;;;;;5010807;28;20256;-76